Time;durP1;ratioP1;P1;durP2;ratioP2;P2;SDS_P1;SDS_P2;PMS_P1;PMS_P2;Temp;Humidity;BMP_temperature;BMP_pressure;BME280_temperature;BME280_humidity;BME280_pressure;Samples;Min_cycle;Max_cycle;Signal;HPM_P1;HPM_P2
2021/10/16 00:00:24;;;;;;;10.48;2.33;;;;;;;10.99;60.80;100864.75;5013035;28;20033;-76
2021/10/16 00:02:50;;;;;;;9.18;2.40;;;;;;;10.98;61.91;100824.94;5011671;28;20030;-76
2021/10/16 00:05:16;;;;;;;14.88;2.83;;;;;;;10.94;62.40;100856.56;4995003;28;20045;-76
2021/10/16 00:07:41;;;;;;;13.68;3.58;;;;;;;10.92;63.97;100799.59;4994227;28;20034;-76
2021/10/16 00:10:07;;;;;;;18.88;3.33;;;;;;;10.92;64.18;100824.13;4979782;28;20018;-77
2021/10/16 00:12:32;;;;;;;7.85;2.83;;;;;;;10.88;64.76;100801.22;5015765;28;20041;-77
2021/10/16 00:14:58;;;;;;;9.02;2.92;;;;;;;10.89;65.33;100824.69;5016508;28;20033;-77
2021/10/16 00:17:23;;;;;;;14.07;3.53;;;;;;;10.90;65.40;100834.50;5015939;28;20080;-76
2021/10/16 00:19:48;;;;;;;13.65;2.45;;;;;;;10.89;65.81;100814.59;4998784;28;20057;-79
2021/10/16 00:22:15;;;;;;;11.82;2.20;;;;;;;10.89;65.83;100844.59;5015647;28;20041;-76
2021/10/16 00:24:40;;;;;;;15.15;2.70;;;;;;;10.90;66.08;100799.03;4998081;28;20186;-76
2021/10/16 00:27:05;;;;;;;11.40;2.95;;;;;;;10.92;65.96;100801.50;4997753;28;20201;-78
2021/10/16 00:29:31;;;;;;;16.27;3.33;;;;;;;10.95;67.01;100815.38;5016258;28;20034;-78
2021/10/16 00:31:59;;;;;;;19.75;4.60;;;;;;;10.97;67.18;100783.22;5014830;28;20109;-78
2021/10/16 00:34:24;;;;;;;11.93;2.85;;;;;;;11.00;67.20;100830.94;4998912;28;20080;-78
2021/10/16 00:36:49;;;;;;;16.42;2.92;;;;;;;11.01;67.09;100819.72;4996658;28;20029;-78
2021/10/16 00:39:15;;;;;;;12.70;3.63;;;;;;;11.03;66.89;100823.00;5003961;28;20026;-77
2021/10/16 00:41:40;;;;;;;16.02;3.13;;;;;;;11.07;67.08;100828.72;5015288;28;20022;-78
2021/10/16 00:44:18;;;;;;;9.65;2.70;;;;;;;11.09;66.66;100804.72;5015975;28;20033;-78
2021/10/16 00:46:44;;;;;;;10.27;2.95;;;;;;;11.11;66.52;100806.06;4997647;28;20096;-78
2021/10/16 00:49:10;;;;;;;12.50;2.92;;;;;;;11.11;65.98;100786.97;4998366;28;20509;-78
2021/10/16 00:51:35;;;;;;;12.65;2.20;;;;;;;11.13;65.75;100784.00;4981328;28;20480;-77
2021/10/16 00:54:01;;;;;;;13.45;3.22;;;;;;;11.16;65.64;100796.22;5014201;28;20034;-77
2021/10/16 00:56:26;;;;;;;10.95;2.22;;;;;;;11.18;65.31;100807.69;4996298;28;20132;-78
2021/10/16 00:58:53;;;;;;;11.52;3.28;;;;;;;11.21;65.28;100831.69;4982184;28;20053;-77
2021/10/16 01:01:18;;;;;;;13.73;4.18;;;;;;;11.26;66.19;100812.59;5014759;28;20105;-77
2021/10/16 01:03:44;;;;;;;20.35;3.83;;;;;;;11.32;66.71;100808.72;5015840;28;20022;-78
2021/10/16 01:06:09;;;;;;;15.07;3.55;;;;;;;11.34;67.25;100820.19;5014824;28;20018;-77
2021/10/16 01:08:34;;;;;;;21.13;4.22;;;;;;;11.34;66.64;100801.09;4998060;28;20072;-75
2021/10/16 01:11:01;;;;;;;17.00;4.10;;;;;;;11.35;66.28;100778.19;4978441;28;20029;-77
2021/10/16 01:13:27;;;;;;;17.13;4.43;;;;;;;11.35;66.25;100805.47;5014084;28;20485;-76
2021/10/16 01:15:52;;;;;;;16.92;3.42;;;;;;;11.33;66.13;100807.66;5015611;28;20032;-76
2021/10/16 01:18:20;;;;;;;15.65;3.95;;;;;;;11.35;66.65;100786.38;5014333;28;20053;-76
2021/10/16 01:20:47;;;;;;;25.00;4.53;;;;;;;11.32;66.83;100804.13;5015758;28;20034;-76
2021/10/16 01:23:12;;;;;;;8.68;2.40;;;;;;;11.33;66.73;100792.09;4978884;28;20034;-76
2021/10/16 01:25:37;;;;;;;15.73;2.17;;;;;;;11.35;66.76;100791.81;4984430;28;20037;-76
2021/10/16 01:28:04;;;;;;;11.43;3.55;;;;;;;11.34;66.44;100776.53;4997026;28;20038;-76
2021/10/16 01:30:29;;;;;;;10.45;2.65;;;;;;;11.34;66.51;100801.09;4997673;28;20036;-76
2021/10/16 01:32:55;;;;;;;15.07;2.80;;;;;;;11.34;65.77;100803.81;4994796;28;20029;-76
2021/10/16 01:35:20;;;;;;;15.70;3.53;;;;;;;11.33;65.42;100786.63;5015135;28;20481;-76
2021/10/16 01:37:47;;;;;;;13.75;2.88;;;;;;;11.36;65.84;100798.91;5014498;28;20025;-76
2021/10/16 01:40:13;;;;;;;15.82;3.92;;;;;;;11.38;66.35;100818.56;5014934;28;20113;-76
2021/10/16 01:42:42;;;;;;;18.25;3.83;;;;;;;11.39;66.69;100776.50;5014197;28;20030;-76
2021/10/16 01:45:12;;;;;;;22.65;5.15;;;;;;;11.44;67.16;100784.69;4997753;28;20021;-76
2021/10/16 01:47:53;;;;;;;20.50;4.78;;;;;;;11.47;66.60;100789.56;4991635;28;20032;-76
2021/10/16 01:50:19;;;;;;;13.82;3.25;;;;;;;11.50;65.54;100789.00;4998886;28;20033;-78
2021/10/16 01:52:45;;;;;;;21.20;4.43;;;;;;;11.52;65.78;100770.44;4996382;28;20030;-76
2021/10/16 01:55:10;;;;;;;14.05;3.53;;;;;;;11.56;66.44;100785.16;5011755;28;20053;-76
2021/10/16 01:57:36;;;;;;;20.58;4.47;;;;;;;11.59;66.02;100791.16;5013563;28;20437;-78
2021/10/16 02:00:02;;;;;;;9.27;3.10;;;;;;;11.59;65.46;100824.75;5014710;28;20493;-76
2021/10/16 02:02:28;;;;;;;17.25;4.53;;;;;;;11.60;65.16;100776.44;4996481;28;20393;-76
2021/10/16 02:04:53;;;;;;;16.60;5.75;;;;;;;11.61;65.04;100778.06;5014484;28;20034;-75
2021/10/16 02:07:20;;;;;;;19.83;3.80;;;;;;;11.65;65.67;100776.38;5013762;28;20164;-76
2021/10/16 02:09:45;;;;;;;18.05;4.38;;;;;;;11.65;66.17;100779.09;4996924;28;20444;-76
2021/10/16 02:12:11;;;;;;;20.58;4.45;;;;;;;11.67;66.00;100787.84;5013534;28;20033;-76
2021/10/16 02:14:36;;;;;;;28.10;5.15;;;;;;;11.69;66.73;100777.47;5014330;28;20588;-76
2021/10/16 02:17:02;;;;;;;17.30;3.80;;;;;;;11.68;65.74;100794.97;5012652;28;20080;-76
2021/10/16 02:19:28;;;;;;;18.42;5.25;;;;;;;11.67;65.51;100809.69;4996916;28;20045;-76
2021/10/16 02:21:54;;;;;;;8.50;2.70;;;;;;;11.68;65.65;100784.84;4994888;28;20045;-76
2021/10/16 02:24:20;;;;;;;16.35;3.55;;;;;;;11.66;65.73;100787.03;4978742;28;20030;-76
2021/10/16 02:26:45;;;;;;;12.18;2.85;;;;;;;11.63;65.40;100760.28;5013026;28;20028;-76
2021/10/16 02:29:11;;;;;;;14.05;3.47;;;;;;;11.63;65.48;100773.94;5014168;28;20026;-76
2021/10/16 02:31:37;;;;;;;12.60;3.70;;;;;;;11.63;65.38;100784.06;5012303;28;20022;-76
2021/10/16 02:34:02;;;;;;;8.75;2.35;;;;;;;11.65;65.72;100770.91;5013174;28;20461;-76
2021/10/16 02:36:31;;;;;;;18.10;3.78;;;;;;;11.62;64.74;100775.06;5014089;28;20461;-77
2021/10/16 02:38:57;;;;;;;19.08;4.68;;;;;;;11.66;65.12;100769.84;5012938;28;20045;-76
2021/10/16 02:41:23;;;;;;;17.23;4.20;;;;;;;11.68;64.04;100775.84;5013946;28;20083;-75
2021/10/16 02:43:50;;;;;;;15.07;3.85;;;;;;;11.70;63.80;100771.72;4995146;28;20038;-76
2021/10/16 02:46:16;;;;;;;20.60;4.22;;;;;;;11.72;63.72;100776.91;5013582;28;20029;-76
2021/10/16 02:48:41;;;;;;;15.35;4.47;;;;;;;11.74;63.83;100770.06;4995745;28;20033;-78
2021/10/16 02:51:07;;;;;;;15.15;3.42;;;;;;;11.74;63.77;100797.38;5013694;28;20075;-77
2021/10/16 02:53:34;;;;;;;20.05;3.80;;;;;;;11.72;63.48;100785.09;5010025;28;20511;-77
2021/10/16 02:56:00;;;;;;;13.73;3.60;;;;;;;11.69;62.73;100780.19;5013533;28;20029;-78
2021/10/16 02:58:25;;;;;;;18.95;5.28;;;;;;;11.69;63.25;100774.72;5012817;28;20085;-77
2021/10/16 03:00:50;;;;;;;15.70;2.67;;;;;;;11.68;63.67;100779.38;4996382;28;20033;-77
2021/10/16 03:03:16;;;;;;;19.10;4.47;;;;;;;11.69;64.13;100758.34;4995090;28;20017;-76
2021/10/16 03:05:41;;;;;;;15.60;4.57;;;;;;;11.66;63.58;100758.91;5013504;28;20481;-77
2021/10/16 03:08:07;;;;;;;13.00;3.45;;;;;;;11.66;64.08;100767.09;5012556;28;20034;-76
2021/10/16 03:10:32;;;;;;;17.00;2.85;;;;;;;11.68;64.46;100751.25;4995926;28;20080;-76
2021/10/16 03:12:57;;;;;;;13.85;4.45;;;;;;;11.71;64.95;100778.00;5012334;28;20029;-77
2021/10/16 03:15:23;;;;;;;21.60;3.95;;;;;;;11.73;65.32;100792.19;4996112;28;20030;-76
2021/10/16 03:17:48;;;;;;;27.13;5.28;;;;;;;11.73;65.78;100775.78;5011125;28;20022;-76
2021/10/16 03:20:13;;;;;;;19.33;4.63;;;;;;;11.73;65.44;100792.19;5013276;28;20034;-76
2021/10/16 03:22:39;;;;;;;21.85;5.05;;;;;;;11.71;64.79;100756.16;4994878;28;20079;-76
2021/10/16 03:25:05;;;;;;;15.23;4.50;;;;;;;11.68;64.57;100773.91;5013163;28;20026;-76
2021/10/16 03:27:30;;;;;;;23.52;4.53;;;;;;;11.65;63.51;100763.56;5012226;28;20048;-76
2021/10/16 03:29:56;;;;;;;18.55;5.03;;;;;;;11.67;64.29;100775.00;4995493;28;20519;-76
2021/10/16 03:32:21;;;;;;;19.35;3.85;;;;;;;11.66;64.91;100781.56;5012580;28;20069;-77
2021/10/16 03:34:46;;;;;;;15.48;4.03;;;;;;;11.70;65.64;100766.28;4995891;28;20044;-77
2021/10/16 03:37:13;;;;;;;17.17;3.97;;;;;;;11.71;64.95;100780.75;5010886;28;20026;-76
2021/10/16 03:39:38;;;;;;;14.82;3.90;;;;;;;11.71;64.66;100753.44;5013153;28;20022;-76
2021/10/16 03:42:04;;;;;;;19.13;4.32;;;;;;;11.71;65.13;100794.38;5011977;28;20033;-76
2021/10/16 03:44:29;;;;;;;13.15;2.80;;;;;;;11.71;65.63;100773.34;5012645;28;20026;-76
2021/10/16 03:46:56;;;;;;;22.50;5.38;;;;;;;11.72;66.42;100783.16;5012897;28;20026;-76
2021/10/16 03:49:21;;;;;;;17.10;3.63;;;;;;;11.71;66.63;100778.00;5011338;28;20026;-76
2021/10/16 03:51:48;;;;;;;14.70;3.33;;;;;;;11.72;66.81;100757.78;5013005;28;20037;-77
2021/10/16 03:54:15;;;;;;;15.95;3.90;;;;;;;11.70;66.30;100776.34;5010860;28;20030;-76
2021/10/16 03:56:40;;;;;;;13.50;3.90;;;;;;;11.69;65.80;100763.81;5013056;28;20069;-76
2021/10/16 03:59:07;;;;;;;16.50;3.25;;;;;;;11.69;65.52;100763.81;4994645;28;20034;-77
2021/10/16 04:01:32;;;;;;;17.25;3.88;;;;;;;11.71;65.62;100756.97;4979175;28;20357;-77
2021/10/16 04:03:58;;;;;;;19.92;3.88;;;;;;;11.74;66.77;100739.19;5011908;28;20037;-76
2021/10/16 04:06:23;;;;;;;16.48;3.58;;;;;;;11.74;66.59;100771.97;4995050;28;20049;-76
2021/10/16 04:08:49;;;;;;;17.77;3.30;;;;;;;11.71;66.46;100832.63;5006885;28;20026;-76
2021/10/16 04:11:14;;;;;;;13.95;4.65;;;;;;;11.65;65.56;100790.88;5012677;28;20022;-76
2021/10/16 04:13:39;;;;;;;19.65;3.80;;;;;;;11.65;65.03;100751.81;4994344;28;20420;-76
2021/10/16 04:16:05;;;;;;;14.68;3.10;;;;;;;11.64;65.20;100767.38;5012818;28;20026;-76
2021/10/16 04:18:30;;;;;;;21.45;4.30;;;;;;;11.67;66.35;100738.69;5010248;28;20077;-77
2021/10/16 04:20:55;;;;;;;15.65;4.10;;;;;;;11.69;66.58;100766.53;4995366;28;20030;-76
2021/10/16 04:23:21;;;;;;;22.58;4.00;;;;;;;11.67;66.47;100776.91;5010745;28;20466;-77
2021/10/16 04:25:48;;;;;;;29.30;5.78;;;;;;;11.63;66.92;100749.38;5004437;28;20031;-75
2021/10/16 04:28:13;;;;;;;19.65;5.80;;;;;;;11.65;66.81;100758.09;4988668;28;20374;-76
2021/10/16 04:30:38;;;;;;;16.05;4.93;;;;;;;11.66;66.58;100751.53;5011451;28;20022;-76
2021/10/16 04:33:04;;;;;;;17.98;3.92;;;;;;;11.63;66.10;100741.19;5005051;28;20026;-76
2021/10/16 04:35:29;;;;;;;20.20;4.72;;;;;;;11.61;66.34;100737.91;5010868;28;20024;-76
2021/10/16 04:37:55;;;;;;;18.63;5.20;;;;;;;11.60;66.29;100740.94;5011543;28;20049;-75
2021/10/16 04:40:21;;;;;;;17.90;3.67;;;;;;;11.58;66.30;100740.38;4994852;28;20044;-76
2021/10/16 04:42:50;;;;;;;24.60;4.80;;;;;;;11.57;66.15;100745.03;5011795;28;20366;-76
2021/10/16 04:45:15;;;;;;;21.42;4.00;;;;;;;11.59;65.28;100723.72;4994895;28;20607;-76
2021/10/16 04:47:40;;;;;;;18.02;3.83;;;;;;;11.58;63.85;100751.31;4993664;28;20042;-76
2021/10/16 04:50:07;;;;;;;16.63;4.28;;;;;;;11.56;64.47;100765.22;4994900;28;20044;-77
2021/10/16 04:52:33;;;;;;;22.00;3.88;;;;;;;11.55;64.52;100761.69;5011293;28;20026;-76
2021/10/16 04:54:58;;;;;;;18.95;3.28;;;;;;;11.56;64.94;100755.13;5011541;28;20036;-76
2021/10/16 04:57:24;;;;;;;12.50;3.28;;;;;;;11.56;64.44;100765.22;5012686;28;20544;-77
2021/10/16 04:59:49;;;;;;;21.35;4.60;;;;;;;11.60;65.12;100760.03;5015714;28;20021;-76
2021/10/16 05:02:14;;;;;;;13.75;3.08;;;;;;;11.59;64.67;100729.16;5015858;28;20473;-76
2021/10/16 05:04:40;;;;;;;21.88;3.63;;;;;;;11.60;64.67;100788.16;4997383;28;20034;-77
2021/10/16 05:07:05;;;;;;;19.73;4.70;;;;;;;11.63;65.28;100702.13;4982032;28;20033;-76
2021/10/16 05:09:32;;;;;;;21.10;3.63;;;;;;;11.67;66.74;100787.84;5014940;28;20469;-76
2021/10/16 05:11:59;;;;;;;25.20;4.57;;;;;;;11.71;67.59;100750.69;5015736;28;20075;-76
2021/10/16 05:14:24;;;;;;;31.75;5.30;;;;;;;11.72;67.59;100758.59;5014539;28;20443;-76
2021/10/16 05:16:49;;;;;;;17.23;5.10;;;;;;;11.74;67.12;100750.13;4992830;28;20023;-76
2021/10/16 05:19:15;;;;;;;22.55;3.72;;;;;;;11.73;66.91;100757.50;5010217;28;20046;-77
2021/10/16 05:21:40;;;;;;;21.88;3.83;;;;;;;11.75;66.89;100760.75;4996415;28;20137;-76
2021/10/16 05:24:06;;;;;;;15.05;4.05;;;;;;;11.77;66.31;100765.94;5014511;28;20489;-76
2021/10/16 05:26:31;;;;;;;18.75;5.15;;;;;;;11.75;67.04;100765.41;5001778;28;20046;-77
2021/10/16 05:28:56;;;;;;;22.17;4.82;;;;;;;11.73;67.95;100743.84;5014526;28;20042;-77
2021/10/16 05:31:24;;;;;;;16.20;3.63;;;;;;;11.70;68.03;100738.13;5015454;28;20018;-76
2021/10/16 05:33:50;;;;;;;13.70;3.97;;;;;;;11.64;67.56;100733.78;5006901;28;20032;-77
2021/10/16 05:36:15;;;;;;;30.42;5.88;;;;;;;11.59;67.92;100714.72;4994610;28;20486;-77
2021/10/16 05:38:41;;;;;;;21.77;3.92;;;;;;;11.55;68.36;100750.78;4980592;28;20034;-77
2021/10/16 05:41:06;;;;;;;14.10;2.95;;;;;;;11.55;68.95;100774.53;5015268;28;20026;-77
2021/10/16 05:43:31;;;;;;;13.20;3.40;;;;;;;11.52;68.94;100740.41;5013953;28;20030;-78
2021/10/16 05:45:58;;;;;;;12.05;3.38;;;;;;;11.47;68.54;100740.44;5015017;28;20034;-77
2021/10/16 05:48:24;;;;;;;16.63;3.10;;;;;;;11.45;68.79;100728.97;5014217;28;20026;-76
2021/10/16 05:50:49;;;;;;;21.35;3.20;;;;;;;11.47;68.41;100762.28;5013619;28;20026;-77
2021/10/16 05:53:14;;;;;;;16.40;2.30;;;;;;;11.49;68.56;100771.00;5014236;28;20421;-76
2021/10/16 05:55:40;;;;;;;22.88;4.20;;;;;;;11.50;68.67;100744.53;4997170;28;20476;-78
2021/10/16 05:58:05;;;;;;;8.80;2.85;;;;;;;11.53;69.36;100742.03;4996198;28;20025;-78
2021/10/16 06:00:31;;;;;;;22.05;4.60;;;;;;;11.51;69.36;100774.28;5014918;28;20049;-77
2021/10/16 06:02:58;;;;;;;12.85;2.85;;;;;;;11.53;69.12;100750.22;5013874;28;20040;-78
2021/10/16 06:05:23;;;;;;;16.90;2.28;;;;;;;11.53;67.43;100769.34;5014703;28;20022;-78
2021/10/16 06:07:50;;;;;;;16.63;3.80;;;;;;;11.55;67.03;100753.50;5012793;28;20026;-77
2021/10/16 06:10:15;;;;;;;14.77;3.70;;;;;;;11.58;66.95;100756.78;5001529;28;20036;-76
2021/10/16 06:12:40;;;;;;;21.52;4.47;;;;;;;11.60;68.04;100739.00;5014434;28;20026;-77
2021/10/16 06:15:06;;;;;;;15.50;3.47;;;;;;;11.60;67.82;100739.00;5013707;28;20469;-77
2021/10/16 06:17:32;;;;;;;10.52;3.05;;;;;;;11.60;67.06;100743.66;5013194;28;20092;-76
2021/10/16 06:19:57;;;;;;;16.70;3.50;;;;;;;11.60;67.52;100765.50;4996686;28;20044;-77
2021/10/16 06:22:22;;;;;;;27.63;4.47;;;;;;;11.64;68.71;100772.03;5024836;28;20079;-77
2021/10/16 06:24:48;;;;;;;11.52;3.50;;;;;;;11.67;68.85;100766.00;5023321;28;20030;-77
2021/10/16 06:27:13;;;;;;;15.77;4.45;;;;;;;11.68;68.36;100745.81;5005097;28;20022;-77
2021/10/16 06:29:39;;;;;;;17.52;5.30;;;;;;;11.69;67.95;100752.88;5019873;28;20044;-77
2021/10/16 06:32:05;;;;;;;15.60;3.22;;;;;;;11.70;67.83;100743.59;5022811;28;20022;-78
2021/10/16 06:34:30;;;;;;;18.60;3.78;;;;;;;11.68;67.18;100787.56;5022501;28;20394;-77
2021/10/16 06:36:56;;;;;;;13.68;2.72;;;;;;;11.65;66.82;100762.72;5024114;28;20022;-77
2021/10/16 06:39:21;;;;;;;14.15;3.33;;;;;;;11.64;66.69;100778.31;5005406;28;20030;-77
2021/10/16 06:41:47;;;;;;;13.38;3.70;;;;;;;11.67;67.24;100766.81;5022732;28;20417;-77
2021/10/16 06:44:12;;;;;;;13.65;3.25;;;;;;;11.68;66.70;100805.88;5015812;28;20033;-77
2021/10/16 06:46:39;;;;;;;20.05;5.00;;;;;;;11.69;66.42;100752.88;4999651;28;20033;-76
2021/10/16 06:49:04;;;;;;;21.27;4.25;;;;;;;11.70;66.36;100770.91;5013638;28;20030;-78
2021/10/16 06:51:29;;;;;;;24.70;3.70;;;;;;;11.72;67.02;100764.06;4998587;28;20421;-76
2021/10/16 06:53:55;;;;;;;21.27;4.40;;;;;;;11.76;67.88;100770.59;5013787;28;20034;-76
2021/10/16 06:56:20;;;;;;;18.65;4.47;;;;;;;11.79;68.99;100791.06;5014196;28;20037;-76
2021/10/16 06:58:46;;;;;;;19.58;4.35;;;;;;;11.80;69.60;100765.38;4995730;28;20488;-77
2021/10/16 07:01:12;;;;;;;17.30;4.22;;;;;;;11.82;70.03;100751.44;5014139;28;20072;-78
2021/10/16 07:03:37;;;;;;;8.77;2.40;;;;;;;11.84;70.29;100777.38;4996316;28;20109;-78
2021/10/16 07:06:02;;;;;;;19.52;3.92;;;;;;;11.88;70.45;100764.81;4996527;28;20033;-78
2021/10/16 07:08:31;;;;;;;16.75;2.83;;;;;;;11.91;71.04;100771.63;4979256;28;20072;-78
2021/10/16 07:10:57;;;;;;;29.23;5.13;;;;;;;11.92;70.97;100773.25;4996971;28;20160;-78
2021/10/16 07:13:22;;;;;;;23.17;4.82;;;;;;;11.92;70.86;100790.47;5010433;28;20156;-76
2021/10/16 07:15:48;;;;;;;11.82;2.97;;;;;;;11.94;70.64;100792.91;4990926;28;20491;-76
2021/10/16 07:18:13;;;;;;;16.65;3.50;;;;;;;11.93;69.44;100763.97;5012475;28;20018;-76
2021/10/16 07:20:38;;;;;;;15.07;3.25;;;;;;;11.89;68.85;100785.56;5013308;28;20037;-76
2021/10/16 07:23:05;;;;;;;14.05;2.83;;;;;;;11.88;68.06;100805.78;5013719;28;20022;-77
2021/10/16 07:25:31;;;;;;;19.60;5.28;;;;;;;11.88;66.98;100822.19;5010205;28;20476;-76
2021/10/16 07:27:56;;;;;;;21.48;5.15;;;;;;;11.92;68.13;100795.94;4995785;28;20096;-77
2021/10/16 07:30:22;;;;;;;12.60;3.25;;;;;;;11.96;68.90;100788.81;4994970;28;20465;-77
2021/10/16 07:32:47;;;;;;;18.35;4.47;;;;;;;11.97;69.10;100817.75;5013633;28;20029;-78
2021/10/16 07:35:13;;;;;;;20.95;3.40;;;;;;;11.99;69.10;100810.09;5012201;28;20068;-77
2021/10/16 07:37:39;;;;;;;11.35;3.15;;;;;;;12.01;68.83;100787.16;4995984;28;20029;-77
2021/10/16 07:40:06;;;;;;;15.43;3.25;;;;;;;12.01;67.83;100841.81;5012559;28;20022;-78
2021/10/16 07:42:31;;;;;;;16.20;4.20;;;;;;;12.01;67.31;100809.81;4999613;28;20374;-77
2021/10/16 07:44:57;;;;;;;20.83;4.45;;;;;;;12.05;67.58;100794.47;4993522;28;20026;-78
2021/10/16 07:47:26;;;;;;;10.88;2.88;;;;;;;12.10;68.39;100818.22;5012044;28;20021;-78
2021/10/16 07:49:54;;;;;;;14.85;3.30;;;;;;;12.11;68.15;100814.38;4995121;28;20025;-77
2021/10/16 07:52:21;;;;;;;16.52;3.50;;;;;;;12.09;67.04;100800.22;4979899;28;20105;-77
2021/10/16 07:54:47;;;;;;;16.00;4.03;;;;;;;12.10;66.70;100801.84;5011957;28;20060;-77
2021/10/16 07:57:14;;;;;;;13.82;3.55;;;;;;;12.10;66.81;100826.44;4995540;28;20393;-77
2021/10/16 07:59:40;;;;;;;21.90;3.85;;;;;;;12.10;67.02;100801.84;5012132;28;20018;-77
2021/10/16 08:02:08;;;;;;;13.48;3.20;;;;;;;12.11;67.63;100815.22;5013197;28;20388;-77
2021/10/16 08:04:33;;;;;;;14.23;3.17;;;;;;;12.14;67.55;100814.66;5010299;28;20045;-77
2021/10/16 08:06:59;;;;;;;10.65;3.25;;;;;;;12.12;66.48;100818.78;5000775;28;20469;-77
2021/10/16 08:09:24;;;;;;;15.95;3.60;;;;;;;12.13;66.99;100818.47;5012137;28;20076;-77
2021/10/16 08:11:50;;;;;;;19.27;3.45;;;;;;;12.15;67.20;100840.88;5012658;28;20041;-77
2021/10/16 08:14:15;;;;;;;23.92;4.90;;;;;;;12.15;67.04;100829.94;5010831;28;20396;-77
2021/10/16 08:16:40;;;;;;;15.73;2.90;;;;;;;12.24;67.47;100819.22;5011571;28;20017;-77
2021/10/16 08:19:06;;;;;;;10.70;3.10;;;;;;;12.30;67.41;100839.94;4994236;28;20053;-77
2021/10/16 08:21:31;;;;;;;14.20;2.83;;;;;;;12.32;67.31;100829.56;5011664;28;20030;-77
2021/10/16 08:23:57;;;;;;;16.55;3.13;;;;;;;12.35;67.48;100823.50;4994188;28;20034;-77
2021/10/16 08:26:22;;;;;;;22.50;4.25;;;;;;;12.41;67.60;100835.22;5012927;28;20072;-77
2021/10/16 08:28:48;;;;;;;15.63;2.65;;;;;;;12.42;67.48;100824.00;5011563;28;20034;-77
2021/10/16 08:31:14;;;;;;;24.33;5.03;;;;;;;12.40;67.25;100828.94;5012318;28;20030;-77
2021/10/16 08:33:39;;;;;;;13.63;3.35;;;;;;;12.42;67.25;100850.56;5014940;28;20362;-78
2021/10/16 08:36:05;;;;;;;21.33;5.18;;;;;;;12.42;67.53;100802.16;5016628;28;20028;-78
2021/10/16 08:38:30;;;;;;;15.25;3.17;;;;;;;12.44;67.26;100868.31;5016043;28;20076;-77
2021/10/16 08:40:55;;;;;;;20.52;3.30;;;;;;;12.44;67.22;100819.09;5015884;28;20416;-78
2021/10/16 08:43:21;;;;;;;18.95;4.07;;;;;;;12.42;66.89;100829.47;5016269;28;20495;-77
2021/10/16 08:45:46;;;;;;;13.82;3.80;;;;;;;12.39;66.54;100831.97;5013764;28;20033;-77
2021/10/16 08:48:12;;;;;;;24.15;3.33;;;;;;;12.34;66.60;100813.69;5016366;28;20030;-78
2021/10/16 08:50:39;;;;;;;12.07;3.30;;;;;;;12.30;66.89;100834.47;4981574;28;20026;-77
2021/10/16 08:53:04;;;;;;;14.23;3.45;;;;;;;12.29;66.36;100841.06;4998566;28;20026;-77
2021/10/16 08:55:30;;;;;;;17.88;3.05;;;;;;;12.26;66.00;100838.91;5015185;28;20084;-78
2021/10/16 08:57:58;;;;;;;13.60;2.70;;;;;;;12.24;65.23;100845.75;5015877;28;20021;-77
2021/10/16 09:00:53;;;;;;;12.05;3.45;;;;;;;12.21;65.40;100841.66;5015371;28;20033;-77
2021/10/16 09:03:23;;;;;;;12.10;2.80;;;;;;;12.22;66.36;100843.28;4998212;28;20025;-77
2021/10/16 09:06:01;;;;;;;18.88;3.67;;;;;;;12.26;66.90;100849.84;5014986;28;20172;-78
2021/10/16 09:08:31;;;;;;;15.30;3.22;;;;;;;12.31;66.98;100825.19;5014458;28;20428;-77
2021/10/16 09:11:23;;;;;;;10.05;2.55;;;;;;;12.31;66.02;100865.41;4997509;28;20038;-77
2021/10/16 09:14:01;;;;;;;13.20;2.78;;;;;;;12.32;65.66;100853.34;4967136;28;20030;-77
2021/10/16 09:16:41;;;;;;;12.93;3.40;;;;;;;12.37;65.44;100828.72;5015501;28;20026;-77
2021/10/16 09:19:08;;;;;;;22.40;3.83;;;;;;;12.48;66.76;100835.72;5014442;28;20061;-78
2021/10/16 09:21:34;;;;;;;15.63;3.78;;;;;;;12.60;67.05;100819.78;4997993;28;20037;-78
2021/10/16 09:24:06;;;;;;;12.57;2.92;;;;;;;12.68;65.67;100851.16;5014798;28;20105;-78
2021/10/16 09:26:34;;;;;;;14.50;3.42;;;;;;;12.73;65.32;100820.22;5015866;28;20022;-77
2021/10/16 09:29:00;;;;;;;7.93;2.40;;;;;;;12.74;64.57;100835.50;5014380;28;20472;-78
2021/10/16 09:31:37;;;;;;;9.40;2.67;;;;;;;12.78;64.97;100840.13;4998044;28;20033;-78
2021/10/16 09:34:03;;;;;;;13.55;2.88;;;;;;;12.89;65.58;100863.56;5014652;28;20022;-78
2021/10/16 09:36:30;;;;;;;18.55;3.90;;;;;;;12.88;65.48;100888.47;4997970;28;20029;-78
2021/10/16 09:38:56;;;;;;;21.80;4.38;;;;;;;12.83;65.23;100859.25;4978292;28;20030;-78
2021/10/16 09:41:29;;;;;;;20.83;3.80;;;;;;;12.83;66.33;100874.84;4997411;28;20029;-77
2021/10/16 09:43:55;;;;;;;15.60;4.65;;;;;;;12.77;65.57;100860.41;4992754;28;20033;-76
2021/10/16 09:46:21;;;;;;;16.85;3.55;;;;;;;12.76;64.90;100857.94;4997320;28;20029;-76
2021/10/16 09:48:47;;;;;;;21.15;3.55;;;;;;;12.79;65.12;100863.63;5015350;28;20038;-77
2021/10/16 09:51:14;;;;;;;14.45;3.35;;;;;;;12.80;65.25;100875.41;5013920;28;20022;-76
2021/10/16 09:53:50;;;;;;;24.33;4.38;;;;;;;12.84;64.93;100876.47;5014981;28;20022;-76
2021/10/16 09:56:16;;;;;;;20.17;4.63;;;;;;;12.97;64.50;100875.00;4979201;28;20072;-77
2021/10/16 09:58:42;;;;;;;16.63;3.40;;;;;;;13.05;64.73;100866.16;5014880;28;20018;-78
2021/10/16 10:01:09;;;;;;;16.63;3.65;;;;;;;13.11;65.42;100875.94;5014144;28;20034;-76
2021/10/16 10:03:36;;;;;;;17.90;4.30;;;;;;;13.06;65.33;100882.28;4997807;28;20032;-76
2021/10/16 10:06:01;;;;;;;16.70;4.00;;;;;;;13.03;65.76;100879.31;4996230;28;20405;-77
2021/10/16 10:08:27;;;;;;;13.52;3.40;;;;;;;13.01;65.22;100892.47;4997082;28;20036;-78
2021/10/16 10:10:52;;;;;;;16.98;3.28;;;;;;;12.97;65.44;100877.72;4978095;28;20034;-77
2021/10/16 10:13:19;;;;;;;16.60;3.42;;;;;;;12.98;65.39;100884.81;4980766;28;20421;-78
2021/10/16 10:15:45;;;;;;;11.82;2.78;;;;;;;13.03;65.29;100871.09;5012576;28;20508;-77
2021/10/16 10:20:58;;;;;;;17.48;3.78;;;;;;;13.03;64.36;100873.84;4984963;28;20033;-77
2021/10/16 10:23:25;;;;;;;15.95;3.22;;;;;;;13.10;64.88;100877.06;5014436;28;20404;-77
2021/10/16 10:26:25;;;;;;;22.23;4.43;;;;;;;13.11;64.75;100897.84;4995887;28;20060;-77
2021/10/16 10:28:58;;;;;;;19.35;2.70;;;;;;;13.01;62.82;100906.16;5014078;28;20026;-77
2021/10/16 10:31:46;;;;;;;5.90;2.03;;;;;;;12.96;62.11;100928.06;4979247;28;20025;-78
2021/10/16 10:34:18;;;;;;;13.70;2.45;;;;;;;12.96;62.51;100917.13;5001156;28;20017;-76
2021/10/16 10:36:56;;;;;;;15.85;3.83;;;;;;;12.98;63.35;100934.09;4991237;28;20030;-77
2021/10/16 10:39:36;;;;;;;12.30;2.60;;;;;;;12.94;63.58;100916.63;5013185;28;20026;-77
2021/10/16 10:42:13;;;;;;;12.48;2.88;;;;;;;12.94;64.61;100936.59;5013968;28;20503;-77
2021/10/16 10:44:43;;;;;;;16.63;2.72;;;;;;;12.87;65.34;100919.66;5012992;28;20030;-77
2021/10/16 10:47:28;;;;;;;19.13;2.38;;;;;;;12.77;65.78;100919.78;5013986;28;20098;-77
2021/10/16 10:49:55;;;;;;;15.23;3.00;;;;;;;12.75;65.99;100933.72;4979676;28;20090;-77
2021/10/16 10:52:26;;;;;;;14.10;2.95;;;;;;;12.72;66.08;100914.34;5007232;28;20061;-77
2021/10/16 10:55:08;;;;;;;15.25;2.65;;;;;;;12.72;66.22;100928.00;4995189;28;20059;-77
2021/10/16 10:57:43;;;;;;;15.20;3.28;;;;;;;12.75;66.61;100911.84;4996361;28;20385;-77
2021/10/16 11:00:33;;;;;;;17.63;3.50;;;;;;;12.87;67.42;100909.53;5012628;28;20075;-78
2021/10/16 11:02:59;;;;;;;10.25;2.55;;;;;;;13.12;67.53;100915.88;5013785;28;20113;-77
2021/10/16 11:05:36;;;;;;;10.27;2.15;;;;;;;13.36;66.92;100918.72;4987065;28;20026;-77
2021/10/16 11:08:10;;;;;;;15.23;2.33;;;;;;;13.33;65.66;100898.19;5009815;28;20445;-77
2021/10/16 11:10:36;;;;;;;18.33;3.70;;;;;;;13.38;65.02;100896.53;4993960;28;20026;-78
2021/10/16 11:13:11;;;;;;;14.13;2.75;;;;;;;13.28;64.85;100902.91;4995094;28;20099;-77
2021/10/16 11:15:38;;;;;;;10.75;2.60;;;;;;;13.16;63.33;100888.78;5012712;28;20477;-78
2021/10/16 11:18:10;;;;;;;10.95;2.35;;;;;;;13.22;63.00;100890.34;4995664;28;20149;-78